createdAt,value
2022-11-29T00:01:42.673Z,10.40
2022-11-29T00:04:11.764Z,10.00
2022-11-29T00:06:40.381Z,10.30
2022-11-29T00:09:12.991Z,9.80
2022-11-29T00:12:01.747Z,10.20
2022-11-29T00:14:30.105Z,10.50
2022-11-29T00:17:02.933Z,9.30
2022-11-29T00:19:34.295Z,10.30
2022-11-29T00:22:03.818Z,10.30
2022-11-29T00:24:32.705Z,10.30
2022-11-29T00:27:01.922Z,9.60
2022-11-29T00:29:31.016Z,9.80
2022-11-29T00:32:00.544Z,9.20
2022-11-29T00:34:29.571Z,9.90
2022-11-29T00:36:58.099Z,10.50
2022-11-29T00:39:26.257Z,10.50
2022-11-29T00:41:54.363Z,9.90
2022-11-29T00:44:22.533Z,10.00
2022-11-29T00:46:51.026Z,10.90
2022-11-29T00:49:19.248Z,11.10
2022-11-29T00:51:47.660Z,9.70
2022-11-29T00:54:16.268Z,11.00
2022-11-29T00:56:44.739Z,10.40
2022-11-29T00:59:12.942Z,10.70
2022-11-29T01:01:41.114Z,9.80
2022-11-29T01:04:09.264Z,10.00
2022-11-29T01:06:37.519Z,10.90
2022-11-29T01:09:06.104Z,10.50
2022-11-29T01:11:34.711Z,10.00
2022-11-29T01:14:04.473Z,10.60
2022-11-29T01:16:33.304Z,10.70
2022-11-29T01:19:01.643Z,10.50
2022-11-29T01:21:30.833Z,10.80
2022-11-29T01:24:01.878Z,10.30
2022-11-29T01:26:31.587Z,9.70
2022-11-29T01:29:00.036Z,10.10
2022-11-29T01:31:33.625Z,10.80
2022-11-29T01:34:03.556Z,10.60
2022-11-29T01:36:31.892Z,10.70
2022-11-29T01:39:02.393Z,10.20
2022-11-29T01:41:34.028Z,11.70
2022-11-29T01:44:07.131Z,10.80
2022-11-29T01:46:39.443Z,9.60
2022-11-29T01:49:19.402Z,11.20
2022-11-29T01:51:54.309Z,10.60
2022-11-29T01:56:53.284Z,9.50
2022-11-29T01:59:30.770Z,10.90
2022-11-29T02:02:08.642Z,9.50
2022-11-29T02:04:39.452Z,10.10
2022-11-29T02:07:08.147Z,10.00
2022-11-29T02:09:36.322Z,10.30
2022-11-29T02:12:22.722Z,10.20
2022-11-29T02:15:19.535Z,11.60
2022-11-29T02:18:15.606Z,10.70
2022-11-29T02:20:52.985Z,9.50
2022-11-29T02:23:46.098Z,9.50
2022-11-29T02:27:10.624Z,10.20
2022-11-29T02:30:09.644Z,10.00
2022-11-29T02:33:38.842Z,9.60
2022-11-29T02:37:13.773Z,10.30
2022-11-29T02:40:06.536Z,10.30
2022-11-29T02:42:57.000Z,10.00
2022-11-29T02:45:58.776Z,11.10
2022-11-29T02:48:42.738Z,10.40
2022-11-29T02:51:52.370Z,9.50
2022-11-29T02:54:47.269Z,9.40
2022-11-29T02:57:55.192Z,10.40
2022-11-29T03:00:24.184Z,9.90
2022-11-29T03:02:52.329Z,9.50
2022-11-29T03:05:39.066Z,9.90
2022-11-29T03:08:46.154Z,10.30
2022-11-29T03:11:23.429Z,9.40
2022-11-29T03:14:19.878Z,8.90
2022-11-29T03:17:37.008Z,9.80
2022-11-29T03:20:52.894Z,10.10
2022-11-29T03:23:42.999Z,9.00
2022-11-29T03:26:20.972Z,10.60
2022-11-29T03:29:07.212Z,10.10
2022-11-29T03:32:15.313Z,9.50
2022-11-29T03:34:59.912Z,10.20
2022-11-29T03:38:13.136Z,10.00
2022-11-29T03:41:15.524Z,9.50
2022-11-29T03:44:15.931Z,10.00
2022-11-29T03:47:00.449Z,9.90
2022-11-29T03:49:48.057Z,10.60
2022-11-29T03:52:24.957Z,9.70
2022-11-29T03:55:21.063Z,9.80
2022-11-29T03:58:33.250Z,9.20
2022-11-29T04:01:25.791Z,10.10
2022-11-29T04:03:59.759Z,10.40
2022-11-29T04:06:39.282Z,10.00
2022-11-29T04:09:29.299Z,9.90
2022-11-29T04:12:37.191Z,8.90
2022-11-29T04:15:33.544Z,9.60
2022-11-29T04:18:25.977Z,9.50
2022-11-29T04:21:35.501Z,9.80
2022-11-29T04:24:41.418Z,9.00
2022-11-29T04:27:36.640Z,9.70
2022-11-29T04:30:10.788Z,9.80
2022-11-29T04:33:15.618Z,9.50
2022-11-29T04:36:51.663Z,10.20
2022-11-29T04:39:57.220Z,9.10
2022-11-29T04:42:35.212Z,10.00
2022-11-29T04:45:46.689Z,9.50
2022-11-29T04:49:07.340Z,9.00
2022-11-29T04:52:15.206Z,8.60
2022-11-29T04:55:27.624Z,9.20
2022-11-29T04:58:19.808Z,9.20
2022-11-29T05:01:27.892Z,9.30
2022-11-29T05:04:22.192Z,10.20
2022-11-29T05:07:05.877Z,9.40
2022-11-29T05:10:06.249Z,9.30
2022-11-29T05:12:57.054Z,8.40
2022-11-29T05:15:44.945Z,10.80
2022-11-29T05:18:38.127Z,9.70
2022-11-29T05:21:30.425Z,10.10
2022-11-29T05:24:25.572Z,9.30
2022-11-29T05:27:24.902Z,9.20
2022-11-29T05:30:23.537Z,9.00
2022-11-29T05:33:10.198Z,9.40
2022-11-29T05:35:56.293Z,10.40
2022-11-29T05:39:20.986Z,8.60
2022-11-29T05:42:31.042Z,8.80
2022-11-29T05:45:30.760Z,8.90
2022-11-29T05:48:45.356Z,8.30
2022-11-29T05:51:40.007Z,8.00
2022-11-29T05:54:44.518Z,11.00
2022-11-29T06:04:14.807Z,14.90
2022-11-29T06:10:02.131Z,14.20
2022-11-29T06:12:35.910Z,13.60
2022-11-29T06:15:43.388Z,13.30
2022-11-29T06:18:23.758Z,14.40
2022-11-29T06:21:36.797Z,15.40
2022-11-29T06:24:23.426Z,15.40
2022-11-29T06:27:05.136Z,12.60
2022-11-29T06:29:57.285Z,12.70
2022-11-29T06:32:40.441Z,13.90
2022-11-29T06:35:33.172Z,13.20
2022-11-29T06:38:14.440Z,11.90
2022-11-29T06:40:42.921Z,12.90
2022-11-29T06:43:11.505Z,11.80
2022-11-29T06:45:50.128Z,12.50
2022-11-29T06:48:29.265Z,12.30
2022-11-29T06:51:22.109Z,13.70
2022-11-29T06:54:17.611Z,12.50
2022-11-29T06:57:33.671Z,11.20
2022-11-29T07:00:25.704Z,13.10
2022-11-29T07:03:11.956Z,14.00
2022-11-29T07:05:41.067Z,15.50
2022-11-29T07:08:19.015Z,16.10
2022-11-29T07:10:51.474Z,16.20
2022-11-29T07:13:20.883Z,14.50
2022-11-29T07:16:17.776Z,16.30
2022-11-29T07:19:31.313Z,15.60
2022-11-29T07:22:25.565Z,14.60
2022-11-29T07:24:59.016Z,14.60
2022-11-29T07:27:36.586Z,16.00
2022-11-29T07:30:44.705Z,14.00
2022-11-29T07:33:47.078Z,14.80
2022-11-29T07:36:39.142Z,17.40
2022-11-29T07:39:30.838Z,16.70
2022-11-29T07:42:26.478Z,14.70
2022-11-29T07:45:36.310Z,16.20
2022-11-29T07:48:05.758Z,15.10
2022-11-29T07:50:35.688Z,14.70
2022-11-29T07:53:04.103Z,13.50
2022-11-29T07:55:35.290Z,13.50
2022-11-29T07:58:03.336Z,14.30
2022-11-29T08:00:31.748Z,15.80
2022-11-29T08:03:00.417Z,14.00
2022-11-29T08:05:29.007Z,13.60
2022-11-29T08:07:57.837Z,14.50
2022-11-29T08:10:27.064Z,13.50
2022-11-29T08:12:56.825Z,15.70
2022-11-29T08:15:26.179Z,14.20
2022-11-29T08:17:54.452Z,15.50
2022-11-29T08:20:22.627Z,13.60
2022-11-29T08:22:55.846Z,13.70
2022-11-29T08:25:25.483Z,13.20
2022-11-29T08:27:54.748Z,17.00
2022-11-29T08:30:24.390Z,12.50
2022-11-29T08:32:53.082Z,13.50
2022-11-29T08:35:23.542Z,12.50
2022-11-29T08:37:51.701Z,14.00
2022-11-29T08:40:20.001Z,11.90
2022-11-29T08:42:48.610Z,12.90
2022-11-29T08:45:16.966Z,13.20
2022-11-29T08:47:45.282Z,13.50
2022-11-29T08:50:17.947Z,12.60
2022-11-29T08:53:08.948Z,11.70
2022-11-29T08:55:43.123Z,12.30
2022-11-29T08:58:16.032Z,13.20
2022-11-29T09:00:47.346Z,12.70
2022-11-29T09:03:34.303Z,12.70
2022-11-29T09:06:12.984Z,12.40
2022-11-29T09:08:45.663Z,12.80
2022-11-29T09:11:19.958Z,14.50
2022-11-29T09:13:53.619Z,13.10
2022-11-29T09:16:25.962Z,13.40
2022-11-29T09:18:56.136Z,12.40
2022-11-29T09:21:27.373Z,11.50
2022-11-29T09:23:59.911Z,12.80
2022-11-29T09:26:36.853Z,14.10
2022-11-29T09:29:07.198Z,12.70
2022-11-29T09:31:35.591Z,12.60
2022-11-29T09:34:04.237Z,13.10
2022-11-29T09:36:32.633Z,12.10
2022-11-29T09:39:03.100Z,11.20
2022-11-29T09:42:01.501Z,10.90
2022-11-29T09:44:54.815Z,10.90
2022-11-29T09:48:05.222Z,14.00
2022-11-29T09:51:35.966Z,13.60
2022-11-29T09:54:55.426Z,11.80
2022-11-29T09:57:27.116Z,10.70
2022-11-29T10:00:02.045Z,13.90
2022-11-29T10:02:58.556Z,12.00
2022-11-29T10:05:38.325Z,12.20
2022-11-29T10:08:16.214Z,12.90
2022-11-29T10:10:49.318Z,11.70
2022-11-29T10:13:23.797Z,10.20
2022-11-29T10:15:58.180Z,11.40
2022-11-29T10:18:38.537Z,11.50
2022-11-29T10:21:36.807Z,11.80
2022-11-29T10:24:17.657Z,11.30
2022-11-29T10:26:46.956Z,11.40
2022-11-29T10:29:17.077Z,12.20
2022-11-29T10:31:49.603Z,10.60
2022-11-29T10:34:25.531Z,10.90
2022-11-29T10:36:55.759Z,11.50
2022-11-29T10:39:55.135Z,11.20
2022-11-29T10:42:46.068Z,9.60
2022-11-29T10:45:33.974Z,13.30
2022-11-29T10:48:17.838Z,10.00
2022-11-29T10:50:50.301Z,10.00
2022-11-29T10:53:36.406Z,10.00
2022-11-29T10:56:23.215Z,10.50
2022-11-29T10:59:05.421Z,10.50
2022-11-29T11:01:42.821Z,10.30
2022-11-29T11:04:44.791Z,10.70
2022-11-29T11:07:36.084Z,11.00
2022-11-29T11:10:22.723Z,11.70
2022-11-29T11:13:21.747Z,11.00
2022-11-29T11:16:18.330Z,14.40
2022-11-29T11:18:48.450Z,10.80
2022-11-29T11:21:20.792Z,10.80
2022-11-29T11:24:02.049Z,11.30
2022-11-29T11:26:45.653Z,10.50
2022-11-29T11:29:32.343Z,10.00
2022-11-29T11:32:01.872Z,10.70
2022-11-29T11:34:53.401Z,12.30
2022-11-29T11:37:35.985Z,10.90
2022-11-29T11:40:29.172Z,11.20
2022-11-29T11:43:03.963Z,10.40
2022-11-29T11:45:36.776Z,10.60
2022-11-29T11:48:14.736Z,11.20
2022-11-29T11:50:54.640Z,9.90
2022-11-29T11:53:36.611Z,10.70
2022-11-29T11:56:09.272Z,10.10
2022-11-29T11:58:48.829Z,9.80
2022-11-29T12:01:25.391Z,10.60
2022-11-29T12:04:20.105Z,10.30
2022-11-29T12:06:57.283Z,10.20
2022-11-29T12:09:49.932Z,12.20
2022-11-29T12:12:26.095Z,10.10
2022-11-29T12:15:14.448Z,11.00
2022-11-29T12:17:57.567Z,9.50
2022-11-29T12:20:39.989Z,10.00
2022-11-29T12:23:14.304Z,11.70
2022-11-29T12:26:56.563Z,11.40
2022-11-29T12:29:22.952Z,9.30
2022-11-29T12:32:21.826Z,11.40
2022-11-29T12:35:08.344Z,9.90
2022-11-29T12:38:25.865Z,11.30
2022-11-29T12:41:27.423Z,9.80
2022-11-29T12:44:25.601Z,10.70
2022-11-29T12:48:01.461Z,11.30
2022-11-29T12:50:42.943Z,11.80
2022-11-29T12:54:10.716Z,10.80
2022-11-29T12:57:05.724Z,10.10
2022-11-29T13:00:05.282Z,9.20
2022-11-29T13:03:35.302Z,10.20
2022-11-29T13:06:23.119Z,9.20
2022-11-29T13:09:35.294Z,8.90
2022-11-29T13:12:39.413Z,7.70
2022-11-29T13:15:21.938Z,9.30
2022-11-29T13:18:34.949Z,9.70
2022-11-29T13:21:41.523Z,9.80
2022-11-29T13:24:18.601Z,9.10
2022-11-29T13:26:47.463Z,8.00
2022-11-29T13:29:18.621Z,8.80
2022-11-29T13:31:48.960Z,9.30
2022-11-29T13:34:45.605Z,8.60
2022-11-29T13:37:36.209Z,9.50
2022-11-29T13:40:33.258Z,9.20
2022-11-29T13:43:44.020Z,8.60
2022-11-29T13:46:43.590Z,8.60
2022-11-29T13:49:52.183Z,8.00
2022-11-29T13:52:49.655Z,8.70
2022-11-29T13:55:31.883Z,8.70
2022-11-29T13:58:28.776Z,9.30
2022-11-29T14:01:14.662Z,8.10
2022-11-29T14:03:45.401Z,7.80
2022-11-29T14:06:32.519Z,9.00
2022-11-29T14:09:31.703Z,8.90
2022-11-29T14:12:40.365Z,9.20
2022-11-29T14:15:32.256Z,9.00
2022-11-29T14:18:08.436Z,9.60
2022-11-29T14:20:39.170Z,8.80
2022-11-29T14:23:07.855Z,8.10
2022-11-29T14:25:53.718Z,7.90
2022-11-29T14:28:21.715Z,8.80
2022-11-29T14:30:55.359Z,8.80
2022-11-29T14:33:54.519Z,9.60
2022-11-29T14:36:54.986Z,8.50
2022-11-29T14:39:37.352Z,8.40
2022-11-29T14:42:20.242Z,10.10
2022-11-29T14:45:00.732Z,8.60
2022-11-29T14:47:38.276Z,8.80
2022-11-29T14:50:10.553Z,8.40
2022-11-29T14:52:52.008Z,9.00
2022-11-29T14:55:19.957Z,8.90
2022-11-29T14:57:48.075Z,8.60
2022-11-29T15:00:20.525Z,9.00
2022-11-29T15:03:00.458Z,9.10
2022-11-29T15:05:40.619Z,10.40
2022-11-29T15:08:37.457Z,9.10
2022-11-29T15:11:52.151Z,10.30
2022-11-29T15:14:43.384Z,10.90
2022-11-29T15:17:31.762Z,10.20
2022-11-29T15:20:25.257Z,10.10
2022-11-29T15:22:59.594Z,9.20
2022-11-29T15:25:31.881Z,9.70
2022-11-29T15:28:06.725Z,8.50
2022-11-29T15:30:39.918Z,9.40
2022-11-29T15:33:29.251Z,9.90
2022-11-29T15:36:07.145Z,8.50
2022-11-29T15:38:54.256Z,10.60
2022-11-29T15:41:35.608Z,8.90
2022-11-29T15:44:06.921Z,9.10
2022-11-29T15:46:36.287Z,8.70
2022-11-29T15:49:23.974Z,11.20
2022-11-29T15:52:10.933Z,9.10
2022-11-29T15:54:54.743Z,8.90
2022-11-29T15:57:35.238Z,9.10
2022-11-29T16:00:07.992Z,8.90
2022-11-29T16:02:46.435Z,9.00
2022-11-29T16:05:31.299Z,10.30
2022-11-29T16:08:17.502Z,9.30
2022-11-29T16:10:53.116Z,8.60
2022-11-29T16:13:38.990Z,10.10
2022-11-29T16:16:16.398Z,8.30
2022-11-29T16:18:48.106Z,9.30
2022-11-29T16:21:27.342Z,9.20
2022-11-29T16:23:56.974Z,9.90
2022-11-29T16:26:37.324Z,9.90
2022-11-29T16:29:06.182Z,9.20
2022-11-29T16:31:38.648Z,8.50
2022-11-29T16:34:30.204Z,9.50
2022-11-29T16:37:07.889Z,9.00
2022-11-29T16:39:38.522Z,9.10
2022-11-29T16:42:21.908Z,9.10
2022-11-29T16:45:02.567Z,9.00
2022-11-29T16:47:47.477Z,9.20
2022-11-29T16:50:19.753Z,9.70
2022-11-29T16:52:53.459Z,8.70
2022-11-29T16:55:24.677Z,9.30
2022-11-29T16:57:52.883Z,8.60
2022-11-29T17:00:33.498Z,9.40
2022-11-29T17:03:02.057Z,9.60
2022-11-29T17:05:31.459Z,8.50
2022-11-29T17:08:00.743Z,9.00
2022-11-29T17:10:29.050Z,9.70
2022-11-29T17:12:57.164Z,9.70
2022-11-29T17:15:25.133Z,8.20
2022-11-29T17:17:53.207Z,8.70
2022-11-29T17:20:21.261Z,9.20
2022-11-29T17:22:49.372Z,9.10
2022-11-29T17:25:17.326Z,9.20
2022-11-29T17:27:45.500Z,8.30
2022-11-29T17:30:14.301Z,9.70
2022-11-29T17:32:42.767Z,10.10
2022-11-29T17:35:10.733Z,8.20
2022-11-29T17:37:38.713Z,9.40
2022-11-29T17:40:08.196Z,9.20
2022-11-29T17:42:36.180Z,9.40
2022-11-29T17:45:04.739Z,8.70
2022-11-29T17:47:33.753Z,9.70
2022-11-29T17:50:01.725Z,9.70
2022-11-29T17:52:29.701Z,9.10
2022-11-29T17:54:57.667Z,9.00
2022-11-29T17:57:25.710Z,9.60
2022-11-29T17:59:53.557Z,9.00
2022-11-29T18:02:21.643Z,10.00
2022-11-29T18:04:49.679Z,8.80
2022-11-29T18:07:18.506Z,9.60
2022-11-29T18:09:48.654Z,7.80
2022-11-29T18:12:16.872Z,9.50
2022-11-29T18:14:45.309Z,8.30
2022-11-29T18:17:13.383Z,9.30
2022-11-29T18:19:42.979Z,8.60
2022-11-29T18:22:11.212Z,10.00
2022-11-29T18:24:43.501Z,8.00
2022-11-29T18:27:11.338Z,8.30
2022-11-29T18:29:39.579Z,9.70
2022-11-29T18:32:07.509Z,9.80
2022-11-29T18:34:36.016Z,8.70
2022-11-29T18:37:04.210Z,9.80
2022-11-29T18:39:32.479Z,8.00
2022-11-29T18:42:00.654Z,8.90
2022-11-29T18:44:31.388Z,7.80
2022-11-29T18:46:59.561Z,9.40
2022-11-29T18:49:27.535Z,9.40
2022-11-29T18:51:55.605Z,9.40
2022-11-29T18:54:23.778Z,9.30
2022-11-29T18:56:51.958Z,8.80
2022-11-29T18:59:22.215Z,9.20
2022-11-29T19:01:50.411Z,8.50
2022-11-29T19:04:21.243Z,8.50
2022-11-29T19:06:49.877Z,10.70
2022-11-29T19:09:21.787Z,9.40
2022-11-29T19:11:51.179Z,10.00
2022-11-29T19:14:20.273Z,11.30
2022-11-29T19:16:50.343Z,11.20
2022-11-29T19:19:19.153Z,11.00
2022-11-29T19:21:48.199Z,10.60
2022-11-29T19:24:18.660Z,11.40
2022-11-29T19:26:55.642Z,9.60
2022-11-29T19:29:23.817Z,10.30
2022-11-29T19:31:52.200Z,10.90
2022-11-29T19:34:20.269Z,11.20
2022-11-29T19:36:48.750Z,13.10
2022-11-29T19:39:17.931Z,11.90
2022-11-29T19:41:48.083Z,15.50
2022-11-29T19:44:16.237Z,14.20
2022-11-29T19:46:48.844Z,12.90
2022-11-29T19:49:17.515Z,13.40
2022-11-29T19:51:45.485Z,14.60
2022-11-29T19:54:13.857Z,12.30
2022-11-29T19:56:42.203Z,13.60
2022-11-29T19:59:10.923Z,12.10
2022-11-29T20:01:41.877Z,10.90
2022-11-29T20:04:13.949Z,12.00
2022-11-29T20:06:44.801Z,12.30
2022-11-29T20:09:14.426Z,13.30
2022-11-29T20:11:42.761Z,14.80
2022-11-29T20:14:12.866Z,12.60
2022-11-29T20:16:42.170Z,10.80
2022-11-29T20:19:14.494Z,12.00
2022-11-29T20:21:47.811Z,10.00
2022-11-29T20:24:17.841Z,10.90
2022-11-29T20:26:48.688Z,10.20
2022-11-29T20:29:17.683Z,12.00
2022-11-29T20:31:50.217Z,10.80
2022-11-29T20:34:20.590Z,14.00
2022-11-29T20:37:21.946Z,11.20
2022-11-29T20:40:10.170Z,11.50
2022-11-29T20:43:03.755Z,10.90
2022-11-29T20:45:32.659Z,10.70
2022-11-29T20:48:22.774Z,11.50
2022-11-29T20:51:00.020Z,10.10
2022-11-29T20:53:46.206Z,11.40
2022-11-29T20:56:14.286Z,10.40
2022-11-29T20:58:42.301Z,12.90
2022-11-29T21:01:12.146Z,13.10
2022-11-29T21:03:40.667Z,11.80
2022-11-29T21:06:08.725Z,12.80
2022-11-29T21:08:36.907Z,11.10
2022-11-29T21:11:09.209Z,12.50
2022-11-29T21:13:38.372Z,15.80
2022-11-29T21:16:07.474Z,11.70
2022-11-29T21:18:36.214Z,20.30
2022-11-29T21:21:07.090Z,10.60
2022-11-29T21:23:55.377Z,12.30
2022-11-29T21:26:44.942Z,12.00
2022-11-29T21:29:18.342Z,12.80
2022-11-29T21:31:50.508Z,12.40
2022-11-29T21:34:20.882Z,13.50
2022-11-29T21:36:56.970Z,10.00
2022-11-29T21:39:34.967Z,12.50
2022-11-29T21:42:03.327Z,12.80
2022-11-29T21:44:31.571Z,11.10
2022-11-29T21:46:59.589Z,13.20
2022-11-29T21:49:27.514Z,12.40
2022-11-29T21:51:57.821Z,11.70
2022-11-29T21:54:26.210Z,11.00
2022-11-29T21:56:55.900Z,11.00
2022-11-29T21:59:28.258Z,11.80
2022-11-29T22:01:56.551Z,12.50
2022-11-29T22:04:25.412Z,10.10
2022-11-29T22:06:53.379Z,11.90
2022-11-29T22:09:21.765Z,11.20
2022-11-29T22:11:49.789Z,10.50
2022-11-29T22:14:20.984Z,13.10
2022-11-29T22:17:01.223Z,12.20
2022-11-29T22:19:36.348Z,10.90
2022-11-29T22:22:09.142Z,11.40
2022-11-29T22:24:37.792Z,12.60
2022-11-29T22:27:05.809Z,11.50
2022-11-29T22:29:33.879Z,13.30
2022-11-29T22:32:02.579Z,11.80
2022-11-29T22:34:30.843Z,11.50
2022-11-29T22:36:59.017Z,12.90
2022-11-29T22:39:27.294Z,12.50
2022-11-29T22:41:55.451Z,10.80
2022-11-29T22:44:24.873Z,12.10
2022-11-29T22:46:53.146Z,10.10
2022-11-29T22:49:21.527Z,11.30
2022-11-29T22:51:49.602Z,10.20
2022-11-29T22:54:18.137Z,10.50
2022-11-29T22:56:47.292Z,11.90
2022-11-29T22:59:15.359Z,10.90
2022-11-29T23:01:43.736Z,10.30
2022-11-29T23:04:13.257Z,10.90
2022-11-29T23:06:46.284Z,11.20
2022-11-29T23:09:21.080Z,11.10
2022-11-29T23:11:56.403Z,9.90
2022-11-29T23:14:24.679Z,10.20
2022-11-29T23:16:52.996Z,10.60
2022-11-29T23:19:21.638Z,9.70
2022-11-29T23:21:49.602Z,10.70
2022-11-29T23:24:17.708Z,11.00
2022-11-29T23:26:47.576Z,10.10
2022-11-29T23:29:18.940Z,10.70
2022-11-29T23:31:47.888Z,10.50
2022-11-29T23:34:16.157Z,9.90
2022-11-29T23:36:49.668Z,11.00
2022-11-29T23:39:21.058Z,11.20
2022-11-29T23:41:49.029Z,10.70
2022-11-29T23:44:17.001Z,10.50
2022-11-29T23:46:45.013Z,11.20
2022-11-29T23:49:12.900Z,10.80
2022-11-29T23:51:40.803Z,10.10
2022-11-29T23:54:09.090Z,9.30
2022-11-29T23:56:37.075Z,10.50
2022-11-29T23:59:05.324Z,11.20
